createdAt,value
2019-03-05T00:00:37.790Z,5.16
2019-03-05T00:03:06.183Z,5.17
2019-03-05T00:05:34.566Z,5.12
2019-03-05T00:08:02.955Z,5.08
2019-03-05T00:10:31.343Z,5.08
2019-03-05T00:12:59.738Z,5.07
2019-03-05T00:15:29.267Z,5.06
2019-03-05T00:17:57.716Z,5.08
2019-03-05T00:20:26.491Z,5.08
2019-03-05T00:22:54.871Z,5.08
2019-03-05T00:25:25.605Z,5.08
2019-03-05T00:27:59.813Z,5.08
2019-03-05T00:30:55.564Z,5.07
2019-03-05T00:33:27.012Z,5.06
2019-03-05T00:36:13.287Z,5.03
2019-03-05T00:39:01.563Z,5.01
2019-03-05T00:41:36.157Z,4.96
2019-03-05T00:44:07.642Z,4.88
2019-03-05T00:46:50.844Z,4.81
2019-03-05T00:49:25.639Z,4.78
2019-03-05T00:52:03.174Z,4.72
2019-03-05T00:54:40.598Z,4.70
2019-03-05T00:57:15.075Z,4.67
2019-03-05T00:59:46.524Z,4.66
2019-03-05T01:02:20.794Z,4.65
2019-03-05T01:04:52.623Z,4.63
2019-03-05T01:07:21.488Z,4.63
2019-03-05T01:09:50.307Z,4.67
2019-03-05T01:12:20.242Z,4.68
2019-03-05T01:14:48.631Z,4.68
2019-03-05T01:17:17.356Z,4.69
2019-03-05T01:19:45.736Z,4.66
2019-03-05T01:22:14.112Z,4.63
2019-03-05T01:24:42.513Z,4.64
2019-03-05T01:27:10.960Z,4.66
2019-03-05T01:29:39.363Z,4.68
2019-03-05T01:32:21.352Z,4.73
2019-03-05T01:34:51.395Z,4.74
2019-03-05T01:37:19.767Z,4.76
2019-03-05T01:39:49.793Z,4.75
2019-03-05T01:42:18.175Z,4.79
2019-03-05T01:44:46.570Z,4.80
2019-03-05T01:47:14.963Z,4.82
2019-03-05T01:49:43.350Z,4.85
2019-03-05T01:52:11.743Z,4.85
2019-03-05T01:54:40.132Z,4.87
2019-03-05T01:57:08.522Z,4.90
2019-03-05T01:59:36.951Z,4.93
2019-03-05T02:02:05.817Z,4.94
2019-03-05T02:04:34.207Z,4.95
2019-03-05T02:07:02.685Z,4.96
2019-03-05T02:09:31.075Z,4.97
2019-03-05T02:11:59.470Z,5.00
2019-03-05T02:14:27.854Z,4.99
2019-03-05T02:16:56.243Z,5.01
2019-03-05T02:19:45.271Z,4.99
2019-03-05T02:22:33.999Z,5.02
2019-03-05T02:25:11.461Z,5.04
2019-03-05T02:27:59.365Z,5.03
2019-03-05T02:31:01.282Z,5.03
2019-03-05T02:34:07.627Z,4.95
2019-03-05T02:36:58.042Z,4.97
2019-03-05T02:40:01.529Z,4.99
2019-03-05T02:42:41.810Z,4.93
2019-03-05T02:45:31.879Z,4.99
2019-03-05T02:48:22.438Z,5.00
2019-03-05T02:51:15.104Z,4.93
2019-03-05T02:54:13.683Z,4.96
2019-03-05T02:56:47.829Z,4.92
2019-03-05T02:59:15.071Z,4.93
2019-03-05T03:01:50.816Z,4.93
2019-03-05T03:04:23.807Z,4.94
2019-03-05T03:06:52.199Z,4.95
2019-03-05T03:09:32.543Z,4.96
2019-03-05T03:12:00.946Z,4.97
2019-03-05T03:14:29.367Z,4.92
2019-03-05T03:16:57.712Z,4.97
2019-03-05T03:19:26.170Z,4.95
2019-03-05T03:21:54.571Z,4.98
2019-03-05T03:24:22.959Z,5.01
2019-03-05T03:26:51.361Z,4.98
2019-03-05T03:29:19.741Z,5.00
2019-03-05T03:31:48.140Z,5.00
2019-03-05T03:34:16.837Z,5.01
2019-03-05T03:36:45.217Z,5.07
2019-03-05T03:39:13.679Z,5.06
2019-03-05T03:41:42.082Z,5.05
2019-03-05T03:44:10.476Z,4.99
2019-03-05T03:46:38.870Z,4.99
2019-03-05T03:49:07.265Z,4.97
2019-03-05T03:51:35.652Z,4.89
2019-03-05T03:54:04.125Z,4.86
2019-03-05T03:56:32.510Z,4.84
2019-03-05T03:59:00.917Z,4.89
2019-03-05T04:01:29.380Z,4.89
2019-03-05T04:03:57.768Z,4.82
2019-03-05T04:06:26.225Z,4.82
2019-03-05T04:08:54.613Z,4.82
2019-03-05T04:11:23.025Z,4.83
2019-03-05T04:13:51.676Z,4.83
2019-03-05T04:16:20.076Z,4.80
2019-03-05T04:18:48.461Z,4.77
2019-03-05T04:21:19.853Z,4.77
2019-03-05T04:23:46.991Z,4.84
2019-03-05T04:26:15.382Z,4.84
2019-03-05T04:28:43.850Z,4.80
2019-03-05T04:31:12.236Z,4.77
2019-03-05T04:33:40.633Z,4.73
2019-03-05T04:36:09.019Z,4.76
2019-03-05T04:38:37.408Z,4.75
2019-03-05T04:41:05.798Z,4.76
2019-03-05T04:43:34.193Z,4.79
2019-03-05T04:46:04.220Z,4.76
2019-03-05T04:48:32.989Z,4.73
2019-03-05T04:51:03.329Z,4.78
2019-03-05T04:53:31.982Z,4.79
2019-03-05T04:56:00.624Z,4.78
2019-03-05T04:58:29.003Z,4.72
2019-03-05T05:00:57.428Z,4.69
2019-03-05T05:03:25.814Z,4.68
2019-03-05T05:05:54.215Z,4.70
2019-03-05T05:08:22.609Z,4.67
2019-03-05T05:10:50.996Z,4.68
2019-03-05T05:13:19.393Z,4.66
2019-03-05T05:15:47.779Z,4.68
2019-03-05T05:18:16.168Z,4.69
2019-03-05T05:20:44.629Z,4.70
2019-03-05T05:23:13.012Z,4.68
2019-03-05T05:25:41.411Z,4.60
2019-03-05T05:28:09.795Z,4.53
2019-03-05T05:30:40.138Z,4.54
2019-03-05T05:33:09.366Z,4.52
2019-03-05T05:35:37.831Z,4.51
2019-03-05T05:38:13.627Z,4.54
2019-03-05T05:40:44.246Z,4.50
2019-03-05T05:43:15.335Z,4.49
2019-03-05T05:45:45.641Z,4.46
2019-03-05T05:48:14.031Z,4.43
2019-03-05T05:50:42.443Z,4.43
2019-03-05T05:53:10.844Z,4.37
2019-03-05T05:55:39.399Z,4.41
2019-03-05T05:58:07.871Z,4.39
2019-03-05T06:00:38.262Z,4.40
2019-03-05T06:03:06.669Z,4.38
2019-03-05T06:05:35.058Z,4.40
2019-03-05T06:08:03.482Z,4.42
2019-03-05T06:10:31.880Z,4.43
2019-03-05T06:13:00.275Z,4.43
2019-03-05T06:15:29.055Z,4.44
2019-03-05T06:17:57.457Z,4.46
2019-03-05T06:20:25.848Z,4.46
2019-03-05T06:22:54.257Z,4.47
2019-03-05T06:25:22.719Z,4.47
2019-03-05T06:27:51.121Z,4.51
2019-03-05T06:30:24.645Z,4.52
2019-03-05T06:32:53.034Z,4.52
2019-03-05T06:35:21.422Z,4.60
2019-03-05T06:37:49.813Z,4.60
2019-03-05T06:40:21.136Z,4.59
2019-03-05T06:42:49.798Z,4.59
2019-03-05T06:45:19.527Z,4.50
2019-03-05T06:47:47.993Z,4.45
2019-03-05T06:50:26.895Z,4.37
2019-03-05T06:52:55.294Z,4.39
2019-03-05T06:55:23.676Z,4.42
2019-03-05T06:57:52.059Z,4.36
2019-03-05T07:00:37.248Z,4.28
2019-03-05T07:03:07.268Z,4.22
2019-03-05T07:06:12.371Z,4.17
2019-03-05T07:08:53.143Z,4.14
2019-03-05T07:11:39.781Z,4.09
2019-03-05T07:14:23.079Z,4.09
2019-03-05T07:17:06.817Z,4.09
2019-03-05T07:19:41.231Z,4.10
2019-03-05T07:22:18.695Z,4.12
2019-03-05T07:24:48.697Z,4.18
2019-03-05T07:27:19.831Z,4.23
2019-03-05T07:29:48.227Z,4.22
2019-03-05T07:32:16.614Z,4.23
2019-03-05T07:34:47.349Z,4.25
2019-03-05T07:37:15.873Z,4.27
2019-03-05T07:39:44.266Z,4.27
2019-03-05T07:42:12.667Z,4.31
2019-03-05T07:44:41.045Z,4.32
2019-03-05T07:47:09.460Z,4.33
2019-03-05T07:49:43.639Z,4.32
2019-03-05T07:52:08.035Z,4.29
2019-03-05T07:54:36.433Z,4.30
2019-03-05T07:57:04.885Z,4.33
2019-03-05T07:59:34.076Z,4.34
2019-03-05T08:02:02.493Z,4.32
2019-03-05T08:04:30.860Z,4.36
2019-03-05T08:06:59.330Z,4.41
2019-03-05T08:09:35.805Z,4.46
2019-03-05T08:12:15.928Z,4.45
2019-03-05T08:14:59.816Z,4.44
2019-03-05T08:17:28.219Z,4.47
2019-03-05T08:19:56.600Z,4.48
2019-03-05T08:22:25.047Z,4.49
2019-03-05T08:24:53.452Z,4.52
2019-03-05T08:27:21.833Z,4.53
2019-03-05T08:29:50.314Z,4.46
2019-03-05T08:32:18.708Z,4.34
2019-03-05T08:34:47.076Z,4.26
2019-03-05T08:37:15.464Z,4.20
2019-03-05T08:39:43.851Z,4.14
2019-03-05T08:42:12.348Z,4.05
2019-03-05T08:44:49.989Z,4.01
2019-03-05T08:47:11.262Z,3.93
2019-03-05T08:49:39.659Z,3.88
2019-03-05T08:52:08.037Z,3.80
2019-03-05T08:54:36.505Z,3.81
2019-03-05T08:57:04.964Z,3.85
2019-03-05T08:59:33.347Z,3.81
2019-03-05T09:02:01.738Z,3.84
2019-03-05T09:04:30.124Z,3.96
2019-03-05T09:06:58.576Z,4.10
2019-03-05T09:09:26.965Z,4.22
2019-03-05T09:11:55.485Z,4.19
2019-03-05T09:14:23.872Z,4.21
2019-03-05T09:16:52.257Z,4.18
2019-03-05T09:19:21.176Z,4.20
2019-03-05T09:21:49.573Z,4.08
2019-03-05T09:24:17.950Z,4.07
2019-03-05T09:26:51.328Z,4.10
2019-03-05T09:29:16.520Z,4.10
2019-03-05T09:31:44.936Z,3.91
2019-03-05T09:34:13.324Z,3.87
2019-03-05T09:36:50.522Z,3.79
2019-03-05T09:39:12.473Z,3.74
2019-03-05T09:41:40.929Z,3.77
2019-03-05T09:44:09.336Z,3.72
2019-03-05T09:46:37.736Z,3.73
2019-03-05T09:49:06.120Z,3.78
2019-03-05T09:51:34.887Z,3.78
2019-03-05T09:54:03.751Z,3.74
2019-03-05T09:56:32.167Z,3.77
2019-03-05T09:59:00.555Z,3.75
2019-03-05T10:01:29.023Z,3.77
2019-03-05T10:03:57.407Z,3.90
2019-03-05T10:06:25.788Z,4.00
2019-03-05T10:08:54.201Z,3.89
2019-03-05T10:11:22.860Z,3.93
2019-03-05T10:13:51.603Z,3.88
2019-03-05T10:16:20.282Z,3.90
2019-03-05T10:18:48.667Z,3.90
2019-03-05T10:21:17.141Z,3.90
2019-03-05T10:23:46.469Z,3.92
2019-03-05T10:26:14.914Z,3.89
2019-03-05T10:28:43.607Z,3.98
2019-03-05T10:31:12.236Z,4.02
2019-03-05T10:33:40.722Z,4.10
2019-03-05T10:36:09.103Z,4.15
2019-03-05T10:38:37.479Z,4.31
2019-03-05T10:41:06.316Z,4.35
2019-03-05T10:43:35.064Z,4.33
2019-03-05T10:46:03.499Z,4.45
2019-03-05T10:48:31.910Z,4.46
2019-03-05T10:51:00.444Z,4.41
2019-03-05T10:53:29.197Z,4.34
2019-03-05T10:55:57.604Z,4.40
2019-03-05T10:58:33.749Z,4.57
2019-03-05T11:00:56.844Z,4.58
2019-03-05T11:03:29.336Z,4.70
2019-03-05T11:05:57.719Z,4.91
2019-03-05T11:08:27.441Z,4.93
2019-03-05T11:10:56.561Z,4.81
2019-03-05T11:13:25.094Z,4.67
2019-03-05T11:15:56.481Z,4.75
2019-03-05T11:18:29.395Z,4.86
2019-03-05T11:20:55.227Z,4.74
2019-03-05T11:23:23.746Z,4.85
2019-03-05T11:25:52.201Z,4.94
2019-03-05T11:28:20.595Z,5.05
2019-03-05T11:30:49.129Z,5.11
2019-03-05T11:33:17.666Z,5.24
2019-03-05T11:35:46.059Z,5.31
2019-03-05T11:38:14.448Z,5.34
2019-03-05T11:40:42.907Z,5.45
2019-03-05T11:43:13.304Z,5.61
2019-03-05T11:45:42.958Z,5.76
2019-03-05T11:48:11.480Z,5.99
2019-03-05T11:50:39.897Z,5.84
2019-03-05T11:53:08.267Z,5.80
2019-03-05T11:55:36.663Z,5.94
2019-03-05T11:58:05.216Z,5.88
2019-03-05T12:00:52.776Z,5.87
2019-03-05T12:03:21.451Z,5.81
2019-03-05T12:05:49.902Z,5.89
2019-03-05T12:08:18.581Z,6.02
2019-03-05T12:10:47.259Z,6.25
2019-03-05T12:13:15.788Z,6.21
2019-03-05T12:15:45.543Z,6.33
2019-03-05T12:18:13.984Z,6.30
2019-03-05T12:20:42.438Z,6.34
2019-03-05T12:23:11.921Z,6.45
2019-03-05T12:25:41.193Z,6.50
2019-03-05T12:28:10.985Z,6.51
2019-03-05T12:30:40.059Z,6.53
2019-03-05T12:33:08.513Z,6.53
2019-03-05T12:35:36.972Z,6.64
2019-03-05T12:38:05.889Z,6.49
2019-03-05T12:40:34.478Z,6.37
2019-03-05T12:43:03.199Z,6.23
2019-03-05T12:45:31.582Z,6.21
2019-03-05T12:47:59.980Z,6.20
2019-03-05T12:50:34.171Z,6.28
2019-03-05T12:53:03.414Z,6.20
2019-03-05T12:55:31.802Z,6.14
2019-03-05T12:58:00.190Z,6.15
2019-03-05T13:00:33.205Z,6.21
2019-03-05T13:03:02.432Z,6.32
2019-03-05T13:05:31.254Z,6.41
2019-03-05T13:07:59.636Z,6.38
2019-03-05T13:10:37.317Z,6.43
2019-03-05T13:13:05.335Z,6.63
2019-03-05T13:15:38.579Z,6.84
2019-03-05T13:18:07.075Z,6.98
2019-03-05T13:20:35.475Z,7.05
2019-03-05T13:23:08.726Z,6.98
2019-03-05T13:25:34.064Z,6.81
2019-03-05T13:28:04.155Z,6.83
2019-03-05T13:30:33.201Z,6.81
2019-03-05T13:33:01.649Z,6.82
2019-03-05T13:35:31.785Z,6.88
2019-03-05T13:38:07.472Z,6.95
2019-03-05T13:40:34.245Z,7.01
2019-03-05T13:43:04.696Z,7.06
2019-03-05T13:45:33.090Z,7.18
2019-03-05T13:48:04.511Z,7.08
2019-03-05T13:51:00.049Z,7.05
2019-03-05T13:53:48.252Z,7.01
2019-03-05T13:56:31.808Z,7.14
2019-03-05T13:59:09.574Z,7.24
2019-03-05T14:01:37.974Z,7.30
2019-03-05T14:04:09.738Z,7.40
2019-03-05T14:06:57.978Z,7.55
2019-03-05T14:09:25.203Z,7.55
2019-03-05T14:11:53.608Z,7.49
2019-03-05T14:14:26.351Z,7.58
2019-03-05T14:16:56.740Z,7.66
2019-03-05T14:19:25.189Z,7.81
2019-03-05T14:21:53.608Z,7.87
2019-03-05T14:24:22.111Z,7.83
2019-03-05T14:26:50.840Z,7.71
2019-03-05T14:29:19.231Z,7.55
2019-03-05T14:31:47.891Z,7.42
2019-03-05T14:34:16.414Z,7.40
2019-03-05T14:36:44.761Z,7.36
2019-03-05T14:39:25.250Z,7.50
2019-03-05T14:41:53.825Z,7.70
2019-03-05T14:44:22.696Z,7.84
2019-03-05T14:46:56.313Z,7.95
2019-03-05T14:49:24.916Z,7.96
2019-03-05T14:51:53.390Z,8.00
2019-03-05T14:54:21.874Z,8.07
2019-03-05T14:56:50.623Z,8.10
2019-03-05T14:59:19.350Z,8.15
2019-03-05T15:01:47.859Z,8.11
2019-03-05T15:04:16.258Z,8.12
2019-03-05T15:06:44.665Z,8.14
2019-03-05T15:09:13.228Z,8.22
2019-03-05T15:11:42.674Z,8.28
2019-03-05T15:14:11.083Z,8.27
2019-03-05T15:16:39.792Z,8.21
2019-03-05T15:19:20.632Z,8.22
2019-03-05T15:21:38.292Z,8.17
2019-03-05T15:24:06.774Z,8.17
2019-03-05T15:26:35.147Z,8.17
2019-03-05T15:29:03.552Z,8.19
2019-03-05T15:31:31.945Z,8.21
2019-03-05T15:34:00.332Z,8.19
2019-03-05T15:36:28.764Z,8.26
2019-03-05T15:38:58.739Z,8.26
2019-03-05T15:41:27.878Z,8.29
2019-03-05T15:43:56.375Z,8.30
2019-03-05T15:46:24.775Z,8.35
2019-03-05T15:48:53.592Z,8.34
2019-03-05T15:51:21.957Z,8.35
2019-03-05T15:53:50.698Z,8.42
2019-03-05T15:56:19.086Z,8.41
2019-03-05T15:58:48.982Z,8.43
2019-03-05T16:01:22.208Z,8.35
2019-03-05T16:03:47.572Z,8.35
2019-03-05T16:06:15.967Z,8.33
2019-03-05T16:08:44.351Z,8.34
2019-03-05T16:11:12.740Z,8.35
2019-03-05T16:13:41.166Z,8.35
2019-03-05T16:16:09.558Z,8.32
2019-03-05T16:18:39.021Z,8.26
2019-03-05T16:21:07.831Z,8.25
2019-03-05T16:23:36.216Z,8.27
2019-03-05T16:26:04.662Z,8.24
2019-03-05T16:28:33.391Z,8.23
2019-03-05T16:31:21.806Z,8.21
2019-03-05T16:34:13.137Z,8.13
2019-03-05T16:36:54.031Z,8.08
2019-03-05T16:39:31.619Z,8.07
2019-03-05T16:41:59.009Z,8.10
2019-03-05T16:44:29.041Z,8.14
2019-03-05T16:46:59.071Z,8.08
2019-03-05T16:49:45.922Z,8.07
2019-03-05T16:52:31.201Z,8.02
2019-03-05T16:55:10.010Z,8.07
2019-03-05T16:57:42.760Z,8.05
2019-03-05T17:00:34.877Z,7.98
2019-03-05T17:03:05.080Z,7.96
2019-03-05T17:05:51.569Z,8.02
2019-03-05T17:08:33.620Z,8.11
2019-03-05T17:11:10.036Z,8.11
2019-03-05T17:13:38.414Z,8.01
2019-03-05T17:16:06.811Z,7.87
2019-03-05T17:18:35.207Z,7.82
2019-03-05T17:21:03.776Z,7.78
2019-03-05T17:23:32.531Z,7.72
2019-03-05T17:26:00.912Z,7.69
2019-03-05T17:28:29.308Z,7.70
2019-03-05T17:30:57.698Z,7.71
2019-03-05T17:33:26.084Z,7.71
2019-03-05T17:35:54.835Z,7.69
2019-03-05T17:38:23.281Z,7.68
2019-03-05T17:40:51.671Z,7.69
2019-03-05T17:43:20.067Z,7.70
2019-03-05T17:45:48.450Z,7.78
2019-03-05T17:48:16.870Z,7.83
2019-03-05T17:50:45.252Z,7.85
2019-03-05T17:53:13.638Z,7.92
2019-03-05T17:55:42.097Z,7.97
2019-03-05T17:58:10.481Z,7.99
2019-03-05T18:00:40.870Z,7.98
2019-03-05T18:03:09.245Z,7.97
2019-03-05T18:05:37.647Z,7.93
2019-03-05T18:08:06.322Z,7.96
2019-03-05T18:10:34.703Z,7.97
2019-03-05T18:13:03.508Z,8.04
2019-03-05T18:15:31.898Z,8.01
2019-03-05T18:18:00.289Z,8.00
2019-03-05T18:20:28.682Z,8.02
2019-03-05T18:22:57.067Z,8.00
2019-03-05T18:25:25.493Z,7.99
2019-03-05T18:27:53.881Z,8.04
2019-03-05T18:30:24.013Z,8.05
2019-03-05T18:32:52.405Z,8.10
2019-03-05T18:35:21.223Z,8.06
2019-03-05T18:37:50.260Z,8.01
2019-03-05T18:40:20.853Z,8.00
2019-03-05T18:42:49.397Z,8.08
2019-03-05T18:45:32.681Z,8.18
2019-03-05T18:48:01.072Z,8.19
2019-03-05T18:50:29.704Z,8.20
2019-03-05T18:52:59.529Z,8.13
2019-03-05T18:55:28.363Z,8.05
2019-03-05T18:57:56.824Z,8.00
2019-03-05T19:00:33.986Z,7.96
2019-03-05T19:03:09.065Z,7.89
2019-03-05T19:05:37.736Z,7.86
2019-03-05T19:08:06.195Z,7.85
2019-03-05T19:10:34.607Z,7.91
2019-03-05T19:13:02.991Z,7.90
2019-03-05T19:15:31.456Z,7.86
2019-03-05T19:18:00.113Z,7.90
2019-03-05T19:20:32.339Z,8.00
2019-03-05T19:23:00.797Z,7.89
2019-03-05T19:25:33.976Z,7.73
2019-03-05T19:28:02.349Z,7.67
2019-03-05T19:30:35.249Z,7.67
2019-03-05T19:33:03.737Z,7.65
2019-03-05T19:35:32.200Z,7.63
2019-03-05T19:38:00.658Z,7.72
2019-03-05T19:40:40.139Z,7.74
2019-03-05T19:43:08.761Z,7.74
2019-03-05T19:45:37.136Z,7.76
2019-03-05T19:48:06.078Z,7.82
2019-03-05T19:50:34.543Z,7.75
2019-03-05T19:53:02.927Z,7.68
2019-03-05T19:55:31.789Z,7.74
2019-03-05T19:58:10.339Z,7.69
2019-03-05T20:01:00.262Z,7.65
2019-03-05T20:03:28.650Z,7.49
2019-03-05T20:05:57.033Z,7.43
2019-03-05T20:08:25.488Z,7.40
2019-03-05T20:10:54.046Z,7.34
2019-03-05T20:13:22.447Z,7.36
2019-03-05T20:15:51.215Z,7.33
2019-03-05T20:18:19.591Z,7.33
2019-03-05T20:20:47.975Z,7.44
2019-03-05T20:23:16.391Z,7.50
2019-03-05T20:25:44.948Z,7.52
2019-03-05T20:28:13.330Z,7.50
2019-03-05T20:30:42.515Z,7.53
2019-03-05T20:33:11.130Z,7.68
2019-03-05T20:35:39.518Z,7.71
2019-03-05T20:38:07.964Z,7.76
2019-03-05T20:40:36.355Z,7.78
2019-03-05T20:43:05.294Z,7.83
2019-03-05T20:45:51.998Z,7.79
2019-03-05T20:48:20.454Z,7.75
2019-03-05T20:50:51.003Z,7.64
2019-03-05T20:53:19.424Z,7.62
2019-03-05T20:55:47.810Z,7.68
2019-03-05T20:58:16.202Z,7.76
2019-03-05T21:00:44.807Z,7.85
2019-03-05T21:03:13.919Z,7.93
2019-03-05T21:05:43.749Z,7.97
2019-03-05T21:08:13.337Z,7.95
2019-03-05T21:10:41.724Z,7.93
2019-03-05T21:13:10.383Z,7.89
2019-03-05T21:15:38.801Z,7.85
2019-03-05T21:18:15.131Z,7.80
2019-03-05T21:20:43.514Z,7.75
2019-03-05T21:23:12.401Z,7.70
2019-03-05T21:25:40.791Z,7.64
2019-03-05T21:28:09.179Z,7.59
2019-03-05T21:30:37.673Z,7.57
2019-03-05T21:33:06.133Z,7.54
2019-03-05T21:35:34.524Z,7.51
2019-03-05T21:38:03.007Z,7.51
2019-03-05T21:40:32.543Z,7.53
2019-03-05T21:43:00.921Z,7.52
2019-03-05T21:45:38.338Z,7.49
2019-03-05T21:48:07.069Z,7.48
2019-03-05T21:50:35.456Z,7.48
2019-03-05T21:53:05.308Z,7.50
2019-03-05T21:55:34.636Z,7.49
2019-03-05T21:58:03.188Z,7.46
2019-03-05T22:00:36.768Z,7.47
2019-03-05T22:03:05.795Z,7.45
2019-03-05T22:05:34.181Z,7.45
2019-03-05T22:08:03.120Z,7.44
2019-03-05T22:10:31.519Z,7.39
2019-03-05T22:12:59.910Z,7.37
2019-03-05T22:15:33.123Z,7.37
2019-03-05T22:18:01.500Z,7.36
2019-03-05T22:20:29.896Z,7.34
2019-03-05T22:22:58.481Z,7.35
2019-03-05T22:25:29.083Z,7.34
2019-03-05T22:27:57.746Z,7.36
2019-03-05T22:30:31.522Z,7.34
2019-03-05T22:32:59.908Z,7.34
2019-03-05T22:35:28.306Z,7.32
2019-03-05T22:37:57.066Z,7.28
2019-03-05T22:40:26.506Z,7.26
2019-03-05T22:42:55.030Z,7.24
2019-03-05T22:45:25.765Z,7.21
2019-03-05T22:47:54.437Z,7.21
2019-03-05T22:50:22.833Z,7.18
2019-03-05T22:52:51.981Z,7.18
2019-03-05T22:55:20.591Z,7.21
2019-03-05T22:57:48.985Z,7.28
2019-03-05T23:00:37.033Z,7.34
2019-03-05T23:03:08.163Z,7.42
2019-03-05T23:05:36.839Z,7.46
2019-03-05T23:08:05.667Z,7.49
2019-03-05T23:10:34.536Z,7.52
2019-03-05T23:13:02.995Z,7.52
2019-03-05T23:15:31.975Z,7.50
2019-03-05T23:18:00.366Z,7.58
2019-03-05T23:20:29.085Z,7.55
2019-03-05T23:22:57.463Z,7.49
2019-03-05T23:25:26.022Z,7.45
2019-03-05T23:27:54.497Z,7.41
2019-03-05T23:30:23.261Z,7.38
2019-03-05T23:32:54.055Z,7.33
2019-03-05T23:35:22.686Z,7.27
2019-03-05T23:37:51.139Z,7.18
2019-03-05T23:40:20.092Z,7.14
2019-03-05T23:42:48.644Z,7.11
2019-03-05T23:45:18.460Z,7.10
2019-03-05T23:47:46.871Z,7.13
2019-03-05T23:50:18.912Z,7.14
2019-03-05T23:52:47.372Z,7.21
2019-03-05T23:55:17.527Z,7.28
2019-03-05T23:57:46.169Z,7.32
